Time;durP1;ratioP1;P1;durP2;ratioP2;P2;SDS_P1;SDS_P2;PMS_P1;PMS_P2;Temp;Humidity;BMP_temperature;BMP_pressure;BME280_temperature;BME280_humidity;BME280_pressure;Samples;Min_cycle;Max_cycle;Signal;HPM_P1;HPM_P2
2022/09/09 00:02:20;;;;;;;8.27;7.47;;;13.60;99.90;;;;;;4860840;29;20033;-69
2022/09/09 00:05:18;;;;;;;12.52;7.57;;;13.60;99.90;;;;;;4878937;29;20064;-68
2022/09/09 00:07:52;;;;;;;9.98;7.38;;;13.60;99.90;;;;;;4876790;29;20091;-68
2022/09/09 00:10:29;;;;;;;9.40;7.28;;;13.60;99.90;;;;;;4862334;29;20063;-69
2022/09/09 00:13:00;;;;;;;11.43;7.97;;;13.50;99.90;;;;;;4861720;29;20463;-69
2022/09/09 00:15:48;;;;;;;11.55;7.65;;;13.50;99.90;;;;;;4861341;29;20093;-69
2022/09/09 00:18:29;;;;;;;9.23;7.15;;;13.50;99.90;;;;;;4846749;29;20054;-69
2022/09/09 00:21:06;;;;;;;11.93;7.47;;;13.50;99.90;;;;;;4862162;29;20458;-69
2022/09/09 00:23:39;;;;;;;12.55;7.85;;;13.50;99.90;;;;;;4878245;29;20140;-69
2022/09/09 00:26:23;;;;;;;11.10;7.43;;;13.50;99.90;;;;;;4862080;29;20128;-69
2022/09/09 00:29:09;;;;;;;9.88;7.35;;;13.50;99.90;;;;;;4860697;29;20065;-69
2022/09/09 00:31:37;;;;;;;9.65;7.07;;;13.50;99.90;;;;;;4852665;29;20085;-69
2022/09/09 00:34:17;;;;;;;13.20;7.22;;;13.50;99.90;;;;;;4871969;29;20049;-69
2022/09/09 00:36:45;;;;;;;9.55;7.28;;;13.40;99.90;;;;;;4880755;29;20064;-69
2022/09/09 00:39:34;;;;;;;9.15;7.45;;;13.40;99.90;;;;;;4865082;29;20056;-69
2022/09/09 00:42:41;;;;;;;13.00;7.72;;;13.40;99.90;;;;;;4865233;29;20053;-69
2022/09/09 00:45:35;;;;;;;9.13;7.05;;;13.40;99.90;;;;;;4846890;29;20061;-69
2022/09/09 00:48:10;;;;;;;15.23;7.97;;;13.40;99.90;;;;;;4846506;29;20514;-69
2022/09/09 00:50:57;;;;;;;9.45;7.03;;;13.40;99.90;;;;;;4863034;29;20037;-69
2022/09/09 00:53:41;;;;;;;10.70;7.82;;;13.40;99.90;;;;;;4874151;29;20101;-69
2022/09/09 00:56:23;;;;;;;11.20;7.25;;;13.30;99.90;;;;;;4865193;29;20041;-69
2022/09/09 00:59:18;;;;;;;13.35;8.32;;;13.30;99.90;;;;;;4881440;29;20063;-69
2022/09/09 01:01:44;;;;;;;12.05;7.97;;;13.40;99.90;;;;;;4863042;29;20057;-69
2022/09/09 01:04:16;;;;;;;10.05;7.78;;;13.30;99.90;;;;;;4881600;29;20056;-69
2022/09/09 01:06:44;;;;;;;10.60;7.53;;;13.40;99.90;;;;;;4880260;29;20048;-69
2022/09/09 01:09:25;;;;;;;9.20;8.27;;;13.40;99.90;;;;;;4880965;29;20060;-69
2022/09/09 01:12:15;;;;;;;14.38;8.65;;;13.40;99.90;;;;;;4881754;29;20088;-69
2022/09/09 01:14:51;;;;;;;12.15;8.60;;;13.40;99.90;;;;;;4864648;29;20056;-69
2022/09/09 01:17:20;;;;;;;13.70;8.20;;;13.50;99.90;;;;;;4879923;29;20116;-69
2022/09/09 01:19:57;;;;;;;12.30;8.50;;;13.50;99.90;;;;;;4881466;29;20049;-69
2022/09/09 01:22:57;;;;;;;8.27;6.88;;;13.50;99.90;;;;;;4862267;29;20049;-69
2022/09/09 01:26:01;;;;;;;10.10;6.90;;;13.60;99.90;;;;;;4846716;29;20053;-69
2022/09/09 01:28:28;;;;;;;11.23;7.93;;;13.60;99.90;;;;;;4853525;29;20505;-69
2022/09/09 01:30:56;;;;;;;12.20;7.65;;;13.70;99.90;;;;;;4881047;29;20120;-69
2022/09/09 01:33:21;;;;;;;10.00;7.15;;;13.70;99.90;;;;;;4863080;29;20096;-69
2022/09/09 01:36:00;;;;;;;14.25;7.63;;;13.80;99.90;;;;;;4879199;29;20080;-70
2022/09/09 01:38:27;;;;;;;10.60;7.60;;;13.80;99.90;;;;;;4880642;29;20084;-69
2022/09/09 01:40:54;;;;;;;10.43;6.97;;;13.90;99.90;;;;;;4881275;29;20470;-69
2022/09/09 01:43:21;;;;;;;10.85;7.93;;;13.90;99.90;;;;;;4880588;29;20076;-69
2022/09/09 01:45:50;;;;;;;9.77;6.63;;;13.90;99.90;;;;;;4880692;29;20053;-69
2022/09/09 01:48:16;;;;;;;11.75;7.40;;;14.00;99.90;;;;;;4861722;29;20391;-69
2022/09/09 01:50:41;;;;;;;14.82;7.65;;;14.00;99.90;;;;;;4848347;29;20780;-70
2022/09/09 01:53:09;;;;;;;10.88;7.55;;;14.10;99.90;;;;;;4863884;29;20053;-69
2022/09/09 01:55:41;;;;;;;13.00;7.43;;;14.10;99.90;;;;;;4863986;29;20045;-69
2022/09/09 01:58:26;;;;;;;11.30;7.60;;;14.10;99.90;;;;;;4880478;29;20172;-69
2022/09/09 02:01:24;;;;;;;12.65;6.88;;;14.20;99.90;;;;;;4880543;29;20041;-70
2022/09/09 02:03:57;;;;;;;10.73;6.43;;;14.20;99.90;;;;;;4862204;29;20120;-70
2022/09/09 02:06:25;;;;;;;8.88;6.50;;;14.20;99.90;;;;;;4879647;29;20053;-71
2022/09/09 02:08:55;;;;;;;9.85;6.88;;;14.20;99.90;;;;;;4863809;29;20549;-70
2022/09/09 02:11:27;;;;;;;9.23;6.70;;;14.20;99.90;;;;;;4880112;29;20061;-69
2022/09/09 02:14:24;;;;;;;10.75;6.20;;;14.20;99.90;;;;;;4879897;29;20159;-70
2022/09/09 02:16:54;;;;;;;10.00;7.18;;;14.30;99.90;;;;;;4868713;29;20176;-69
2022/09/09 02:19:43;;;;;;;11.30;6.75;;;14.30;99.90;;;;;;4879853;29;20487;-70
2022/09/09 02:22:09;;;;;;;11.07;7.18;;;14.30;99.90;;;;;;4879563;29;20053;-69
2022/09/09 02:24:38;;;;;;;8.73;6.55;;;14.30;99.90;;;;;;4863879;29;20068;-70
2022/09/09 02:27:08;;;;;;;9.10;6.03;;;14.30;99.90;;;;;;4879847;29;20533;-70
2022/09/09 02:29:38;;;;;;;9.88;6.47;;;14.30;99.90;;;;;;4862618;29;20096;-70
2022/09/09 02:32:09;;;;;;;8.02;6.25;;;14.30;99.90;;;;;;4879877;29;20513;-70
2022/09/09 02:34:39;;;;;;;10.32;6.13;;;14.40;99.90;;;;;;4847059;29;20482;-71
2022/09/09 02:37:07;;;;;;;8.18;6.20;;;14.40;99.90;;;;;;4879595;29;20072;-71
2022/09/09 02:39:33;;;;;;;9.82;6.38;;;14.40;99.90;;;;;;4879782;29;20084;-71
2022/09/09 02:41:59;;;;;;;12.15;6.43;;;14.40;99.90;;;;;;4876987;29;20600;-71
2022/09/09 02:44:25;;;;;;;8.20;5.68;;;14.40;99.90;;;;;;4879930;29;20072;-71
2022/09/09 02:47:09;;;;;;;9.52;6.00;;;14.40;99.90;;;;;;4862999;29;20053;-71
2022/09/09 02:50:03;;;;;;;8.70;6.57;;;14.40;99.90;;;;;;4863159;29;20057;-71
2022/09/09 02:52:34;;;;;;;10.25;6.03;;;14.40;99.90;;;;;;4877840;29;20064;-70
2022/09/09 02:55:07;;;;;;;8.80;6.43;;;14.40;99.90;;;;;;4863403;29;20435;-70
2022/09/09 02:57:34;;;;;;;11.52;6.90;;;14.50;99.90;;;;;;4877801;29;20542;-70
2022/09/09 03:00:01;;;;;;;9.90;5.38;;;14.40;99.90;;;;;;4878657;29;20037;-71
2022/09/09 03:02:26;;;;;;;10.75;7.30;;;14.50;99.90;;;;;;4879373;29;20053;-71
2022/09/09 03:04:52;;;;;;;11.07;6.47;;;14.50;99.90;;;;;;4878617;29;20052;-70
2022/09/09 03:07:21;;;;;;;11.65;7.07;;;14.50;99.90;;;;;;4879104;29;20171;-70
2022/09/09 03:09:47;;;;;;;11.07;7.43;;;14.40;99.90;;;;;;4862697;29;20052;-69
2022/09/09 03:12:13;;;;;;;12.07;7.75;;;14.40;99.90;;;;;;4862373;29;20076;-71
2022/09/09 03:14:39;;;;;;;9.43;7.28;;;14.40;99.90;;;;;;4878938;29;20474;-69
2022/09/09 03:17:05;;;;;;;12.18;7.57;;;14.40;99.90;;;;;;4879350;29;20056;-70
2022/09/09 03:19:31;;;;;;;9.93;6.85;;;14.40;99.90;;;;;;4846580;29;20491;-69
2022/09/09 03:21:58;;;;;;;9.48;6.72;;;14.40;99.90;;;;;;4859802;29;20105;-70
2022/09/09 03:24:24;;;;;;;9.77;7.13;;;14.40;99.90;;;;;;4862971;29;20160;-70
2022/09/09 03:26:50;;;;;;;11.68;7.10;;;14.50;99.90;;;;;;4879160;29;20045;-70
2022/09/09 03:29:17;;;;;;;11.05;6.45;;;14.30;99.90;;;;;;4862648;29;20443;-70
2022/09/09 03:31:43;;;;;;;8.63;6.63;;;14.40;99.90;;;;;;4879141;29;20109;-70
2022/09/09 03:34:08;;;;;;;10.02;6.43;;;14.40;99.90;;;;;;4862785;29;20049;-69
2022/09/09 03:36:34;;;;;;;7.70;6.60;;;14.40;99.90;;;;;;4859563;29;20063;-69
2022/09/09 03:39:00;;;;;;;10.25;6.30;;;14.40;99.90;;;;;;4858819;29;20071;-70
2022/09/09 03:41:26;;;;;;;8.00;5.90;;;14.40;99.90;;;;;;4862494;29;20096;-69
2022/09/09 03:43:52;;;;;;;8.27;5.90;;;14.40;99.90;;;;;;4861114;29;20520;-69
2022/09/09 03:46:24;;;;;;;11.43;6.93;;;14.40;99.90;;;;;;4878939;29;20057;-69
2022/09/09 03:48:52;;;;;;;9.50;6.55;;;14.40;99.90;;;;;;4878738;29;20053;-69
2022/09/09 03:51:18;;;;;;;10.07;6.40;;;14.40;99.90;;;;;;4860594;29;20060;-69
2022/09/09 03:53:44;;;;;;;8.88;6.43;;;14.40;99.90;;;;;;4862273;29;20068;-71
2022/09/09 03:56:10;;;;;;;11.68;7.63;;;14.40;99.90;;;;;;4879336;29;20414;-70
2022/09/09 03:58:37;;;;;;;12.10;7.20;;;14.40;99.90;;;;;;4861035;29;20117;-70
2022/09/09 04:01:17;;;;;;;8.27;6.28;;;14.40;99.90;;;;;;4878309;29;20411;-70
2022/09/09 04:03:59;;;;;;;8.90;6.55;;;14.40;99.90;;;;;;4848253;29;20475;-70
2022/09/09 04:06:25;;;;;;;7.32;6.20;;;14.40;99.90;;;;;;4875707;29;20041;-70
2022/09/09 04:08:52;;;;;;;9.10;7.40;;;14.40;99.90;;;;;;4835361;29;20505;-70
2022/09/09 04:11:47;;;;;;;9.48;6.90;;;14.40;99.90;;;;;;4864380;29;20108;-70
2022/09/09 04:14:38;;;;;;;12.50;7.65;;;14.40;99.90;;;;;;4849273;29;20089;-70
2022/09/09 04:17:06;;;;;;;11.38;6.90;;;14.40;99.90;;;;;;4882046;29;20049;-71
2022/09/09 04:20:01;;;;;;;10.27;7.60;;;14.40;99.90;;;;;;4865031;29;20136;-70
2022/09/09 04:22:52;;;;;;;7.63;6.75;;;14.30;99.90;;;;;;4865954;29;20052;-71
2022/09/09 04:25:17;;;;;;;8.82;6.32;;;14.30;99.90;;;;;;4882131;29;20406;-71
2022/09/09 04:27:44;;;;;;;10.10;7.50;;;14.30;99.90;;;;;;4881317;29;20041;-71
2022/09/09 04:30:10;;;;;;;11.23;8.18;;;14.30;99.90;;;;;;4881504;29;20167;-70
2022/09/09 04:32:36;;;;;;;14.77;9.20;;;14.30;99.90;;;;;;4865374;29;20132;-70
2022/09/09 04:35:02;;;;;;;12.68;8.77;;;14.30;99.90;;;;;;4879570;29;20390;-70
2022/09/09 04:37:28;;;;;;;9.70;8.48;;;14.30;99.90;;;;;;4881720;29;20052;-70
2022/09/09 04:39:53;;;;;;;12.90;8.98;;;14.30;99.90;;;;;;4865283;29;20486;-70
2022/09/09 04:42:19;;;;;;;10.50;8.73;;;14.30;99.90;;;;;;4864017;29;20063;-70
2022/09/09 04:44:45;;;;;;;12.75;8.35;;;14.30;99.90;;;;;;4865319;29;20140;-70
2022/09/09 04:47:10;;;;;;;9.80;7.82;;;14.30;99.90;;;;;;4880681;29;20088;-70
2022/09/09 04:49:36;;;;;;;12.55;8.80;;;14.30;99.90;;;;;;4862459;29;20152;-70
2022/09/09 04:52:03;;;;;;;11.32;7.97;;;14.30;99.90;;;;;;4881146;29;20063;-70
2022/09/09 04:54:29;;;;;;;11.82;7.53;;;14.30;99.90;;;;;;4865101;29;20092;-71
2022/09/09 04:56:55;;;;;;;10.82;8.88;;;14.20;99.90;;;;;;4881440;29;20064;-70
2022/09/09 04:59:21;;;;;;;11.90;8.02;;;14.20;99.90;;;;;;4880909;29;20061;-70
2022/09/09 05:01:48;;;;;;;10.48;8.38;;;14.20;99.90;;;;;;4880141;29;20112;-70
2022/09/09 05:04:15;;;;;;;9.35;7.63;;;14.10;99.90;;;;;;4863479;29;21601;-69
2022/09/09 05:06:42;;;;;;;8.57;7.68;;;14.10;99.90;;;;;;4862493;29;20048;-70
2022/09/09 05:09:07;;;;;;;11.43;7.93;;;14.10;99.90;;;;;;4881414;29;20057;-70
2022/09/09 05:11:36;;;;;;;10.20;7.82;;;14.10;99.90;;;;;;4849498;29;20057;-71
2022/09/09 05:14:09;;;;;;;9.60;8.57;;;14.10;99.90;;;;;;4875322;29;20053;-70
2022/09/09 05:16:45;;;;;;;11.50;7.90;;;14.10;99.90;;;;;;4871661;29;20144;-70
2022/09/09 05:19:11;;;;;;;11.27;7.88;;;14.00;99.90;;;;;;4868300;29;20045;-70
2022/09/09 05:21:38;;;;;;;11.40;8.98;;;14.10;99.90;;;;;;4855495;29;20045;-70
2022/09/09 05:24:32;;;;;;;9.40;8.18;;;14.10;99.90;;;;;;4854433;29;20059;-70
2022/09/09 05:27:05;;;;;;;10.60;8.63;;;14.10;99.90;;;;;;4863761;29;20056;-70
2022/09/09 05:29:57;;;;;;;12.77;8.32;;;14.00;99.90;;;;;;4863330;29;20080;-70
2022/09/09 05:32:24;;;;;;;9.93;8.13;;;14.00;99.90;;;;;;4839690;29;20065;-71
2022/09/09 05:34:54;;;;;;;11.50;8.48;;;14.00;99.90;;;;;;4868572;29;20100;-70
2022/09/09 05:37:20;;;;;;;9.88;7.63;;;14.00;99.90;;;;;;4872847;29;20087;-70
2022/09/09 05:39:46;;;;;;;10.38;8.20;;;14.10;99.90;;;;;;4869685;29;20538;-70
2022/09/09 05:42:13;;;;;;;12.18;8.40;;;14.10;99.90;;;;;;4877470;29;20143;-70
2022/09/09 05:44:48;;;;;;;8.68;7.60;;;14.10;99.90;;;;;;4875765;29;20060;-70
2022/09/09 05:50:42;;;;;;;10.65;8.23;;;14.10;99.90;;;;;;4872215;29;20056;-70
2022/09/09 05:53:36;;;;;;;10.32;7.32;;;14.10;99.90;;;;;;4878785;29;20045;-70
2022/09/09 05:56:04;;;;;;;9.98;8.30;;;14.20;99.90;;;;;;4860665;29;20187;-70
2022/09/09 05:58:34;;;;;;;9.48;7.82;;;14.30;99.90;;;;;;4862520;29;20061;-70
2022/09/09 06:01:11;;;;;;;10.35;8.57;;;14.30;99.90;;;;;;4878739;29;20399;-70
2022/09/09 06:03:39;;;;;;;10.38;8.43;;;14.40;99.90;;;;;;4848394;29;20049;-70
2022/09/09 06:06:07;;;;;;;11.15;8.25;;;14.50;99.90;;;;;;4878394;29;20053;-70
2022/09/09 06:08:38;;;;;;;10.40;8.23;;;14.60;99.90;;;;;;4878936;29;20060;-70
2022/09/09 06:11:16;;;;;;;10.23;7.53;;;14.60;99.90;;;;;;4879751;29;20119;-70
2022/09/09 06:13:42;;;;;;;9.57;7.18;;;14.60;99.90;;;;;;4877822;29;20052;-70
2022/09/09 06:16:11;;;;;;;8.95;7.80;;;14.70;99.90;;;;;;4878270;29;20124;-70
2022/09/09 06:18:40;;;;;;;12.48;7.80;;;14.70;99.90;;;;;;4871213;29;20097;-70
2022/09/09 06:21:11;;;;;;;8.10;7.25;;;14.70;99.90;;;;;;4880567;29;20411;-69
2022/09/09 06:23:39;;;;;;;8.35;7.47;;;14.80;99.90;;;;;;4880439;29;20049;-70
2022/09/09 06:26:09;;;;;;;7.45;6.72;;;14.90;99.90;;;;;;4878984;29;20128;-70
2022/09/09 06:28:35;;;;;;;8.20;7.22;;;14.80;99.90;;;;;;4879692;29;20096;-69
2022/09/09 06:31:03;;;;;;;7.85;7.05;;;14.80;99.90;;;;;;4876798;29;20053;-70
2022/09/09 06:33:40;;;;;;;8.10;6.03;;;14.90;99.90;;;;;;4866137;29;20136;-67
2022/09/09 06:36:10;;;;;;;8.15;6.82;;;14.90;99.90;;;;;;4877036;29;20108;-68
2022/09/09 06:38:35;;;;;;;7.88;6.50;;;15.00;99.90;;;;;;4879835;29;20072;-70
2022/09/09 06:41:01;;;;;;;9.57;6.13;;;15.00;99.90;;;;;;4877991;29;20045;-70
2022/09/09 06:43:27;;;;;;;7.75;6.50;;;15.10;99.90;;;;;;4870638;29;20098;-69
2022/09/09 06:46:30;;;;;;;7.47;6.68;;;15.10;99.90;;;;;;4867011;29;20063;-69
2022/09/09 06:48:59;;;;;;;6.40;5.80;;;15.20;99.90;;;;;;4861017;29;20463;-69
2022/09/09 06:51:34;;;;;;;8.82;6.50;;;15.10;99.90;;;;;;4877080;29;20077;-69
2022/09/09 06:54:02;;;;;;;8.98;6.47;;;15.20;99.90;;;;;;4842948;29;20494;-69
2022/09/09 06:56:33;;;;;;;6.85;5.97;;;15.20;99.90;;;;;;4862503;29;20053;-69
2022/09/09 06:59:03;;;;;;;7.97;6.43;;;15.20;99.90;;;;;;4859423;29;20053;-69
2022/09/09 07:01:31;;;;;;;8.35;6.43;;;15.30;99.90;;;;;;4860938;29;20136;-69
2022/09/09 07:03:58;;;;;;;7.25;5.55;;;15.40;99.90;;;;;;4860780;29;20057;-69
2022/09/09 07:06:30;;;;;;;7.03;5.55;;;15.40;99.90;;;;;;4859606;29;20177;-69
2022/09/09 07:08:58;;;;;;;7.03;5.95;;;15.50;99.90;;;;;;4859703;29;20085;-69
2022/09/09 07:11:29;;;;;;;9.27;5.85;;;15.60;99.90;;;;;;4861809;29;20443;-69
2022/09/09 07:13:57;;;;;;;8.80;5.70;;;15.70;99.90;;;;;;4866683;29;20054;-69
2022/09/09 07:16:27;;;;;;;6.43;5.60;;;15.90;99.90;;;;;;4859523;29;20096;-69
2022/09/09 07:18:57;;;;;;;7.38;5.18;;;16.00;99.90;;;;;;4860757;29;20085;-69
2022/09/09 07:21:24;;;;;;;6.40;5.03;;;15.90;99.90;;;;;;4860293;29;20509;-69
2022/09/09 07:23:50;;;;;;;7.40;5.30;;;16.20;99.90;;;;;;4859611;29;20157;-70
2022/09/09 07:26:21;;;;;;;5.22;4.72;;;16.20;99.90;;;;;;4863627;29;20163;-70
2022/09/09 07:28:47;;;;;;;8.25;5.03;;;16.30;99.90;;;;;;4879531;29;20064;-69
2022/09/09 07:31:20;;;;;;;6.75;5.30;;;16.30;99.90;;;;;;4862707;29;20407;-69
2022/09/09 07:33:46;;;;;;;6.45;5.10;;;16.60;99.90;;;;;;4879459;29;20140;-70
2022/09/09 07:36:32;;;;;;;6.07;5.18;;;16.90;99.90;;;;;;4862296;29;20049;-70
2022/09/09 07:39:01;;;;;;;7.50;4.68;;;17.10;99.90;;;;;;4879108;29;20127;-70
2022/09/09 07:41:31;;;;;;;6.15;4.32;;;17.30;99.90;;;;;;4858909;29;20144;-70
2022/09/09 07:43:56;;;;;;;6.20;4.90;;;17.40;99.90;;;;;;4877288;29;20395;-70
2022/09/09 07:46:25;;;;;;;5.53;4.63;;;17.50;99.90;;;;;;4862158;29;20060;-70
2022/09/09 07:48:55;;;;;;;6.72;4.63;;;17.60;99.90;;;;;;4878978;29;20406;-70
2022/09/09 07:51:30;;;;;;;8.80;5.47;;;17.70;99.90;;;;;;4862109;29;20060;-70
2022/09/09 07:53:58;;;;;;;5.95;4.95;;;17.70;99.90;;;;;;4862108;29;20068;-69
2022/09/09 07:56:25;;;;;;;9.80;5.10;;;17.90;99.90;;;;;;4860464;29;20132;-69
2022/09/09 07:58:53;;;;;;;10.88;4.90;;;17.90;99.90;;;;;;4879213;29;20084;-69
2022/09/09 08:01:23;;;;;;;10.52;5.05;;;18.00;99.90;;;;;;4859806;29;20053;-68
2022/09/09 08:03:56;;;;;;;7.68;5.07;;;17.90;99.90;;;;;;4860481;29;20081;-68
2022/09/09 08:06:22;;;;;;;;;;;17.90;99.90;;;;;;4860581;29;20089;-68
2022/09/09 08:08:51;;;;;;;7.40;5.15;;;17.80;99.90;;;;;;4875547;29;20407;-68
2022/09/09 08:11:16;;;;;;;8.60;4.72;;;17.90;99.90;;;;;;4878094;29;20049;-69
2022/09/09 08:13:43;;;;;;;7.70;5.13;;;17.80;99.90;;;;;;4876732;29;20049;-69
2022/09/09 08:16:12;;;;;;;5.57;4.97;;;17.80;99.90;;;;;;4876491;29;20060;-69
2022/09/09 08:18:38;;;;;;;7.43;5.20;;;17.90;99.90;;;;;;4869002;29;20057;-69
2022/09/09 08:21:17;;;;;;;7.82;4.72;;;17.80;99.90;;;;;;4874233;29;20105;-68
2022/09/09 08:23:45;;;;;;;7.20;5.07;;;17.80;99.90;;;;;;4873128;29;20057;-68
2022/09/09 08:26:16;;;;;;;5.55;4.65;;;17.70;99.90;;;;;;4875527;29;20073;-68
2022/09/09 08:28:42;;;;;;;11.10;5.20;;;17.70;99.90;;;;;;4873213;29;20068;-68
2022/09/09 08:31:13;;;;;;;7.15;4.85;;;17.70;99.90;;;;;;4875966;29;20045;-68
2022/09/09 08:33:41;;;;;;;8.23;5.70;;;17.60;99.90;;;;;;4857490;29;20041;-68
2022/09/09 08:36:10;;;;;;;8.07;4.80;;;17.60;99.90;;;;;;4875904;29;20048;-68
2022/09/09 08:38:37;;;;;;;8.68;5.43;;;17.60;99.90;;;;;;4853748;29;20130;-68
2022/09/09 08:41:31;;;;;;;10.50;5.43;;;17.70;99.90;;;;;;4874705;29;20085;-68
2022/09/09 08:44:39;;;;;;;6.70;4.65;;;17.90;99.90;;;;;;4853525;29;20066;-68
2022/09/09 08:47:16;;;;;;;8.20;5.47;;;17.90;99.90;;;;;;4870964;29;20068;-68
2022/09/09 08:50:04;;;;;;;5.35;4.40;;;18.10;99.90;;;;;;4861132;29;20057;-68
2022/09/09 08:53:03;;;;;;;6.85;4.70;;;18.10;99.90;;;;;;4859499;29;20404;-68
2022/09/09 08:55:35;;;;;;;7.03;3.97;;;18.10;99.90;;;;;;4863698;29;20068;-68
2022/09/09 08:58:16;;;;;;;8.60;4.50;;;18.10;99.90;;;;;;4860922;29;20053;-68
2022/09/09 09:01:12;;;;;;;6.85;4.30;;;18.20;99.90;;;;;;4880677;29;20061;-68
2022/09/09 09:03:59;;;;;;;11.68;4.35;;;18.20;99.90;;;;;;4867582;29;20052;-68
2022/09/09 09:06:35;;;;;;;5.95;3.30;;;18.30;99.90;;;;;;4860191;29;20052;-68
2022/09/09 09:09:23;;;;;;;7.80;3.70;;;18.40;99.90;;;;;;4857574;29;20045;-68
2022/09/09 09:12:00;;;;;;;6.25;3.50;;;18.50;99.90;;;;;;4871800;29;20073;-68
2022/09/09 09:14:30;;;;;;;8.90;3.47;;;18.60;99.90;;;;;;4873340;29;20112;-68
2022/09/09 09:17:00;;;;;;;5.55;3.45;;;18.50;99.90;;;;;;4875225;29;20093;-68
2022/09/09 09:19:27;;;;;;;6.63;3.13;;;18.50;99.90;;;;;;4877109;29;20056;-69
2022/09/09 09:22:15;;;;;;;8.85;3.20;;;18.50;99.90;;;;;;4879554;29;20045;-68
2022/09/09 09:25:10;;;;;;;8.80;3.60;;;18.40;99.90;;;;;;4879094;29;20081;-68
2022/09/09 09:27:39;;;;;;;7.95;2.67;;;18.50;99.90;;;;;;4870108;29;20052;-68
2022/09/09 09:30:17;;;;;;;7.38;3.00;;;18.50;99.90;;;;;;4874427;29;20056;-68
2022/09/09 09:33:09;;;;;;;9.00;2.83;;;18.80;99.90;;;;;;4861431;29;20049;-68
2022/09/09 09:35:35;;;;;;;;;;;18.90;99.90;;;;;;4845665;29;20061;-67
2022/09/09 09:38:03;;;;;;;5.38;2.67;;;19.00;99.90;;;;;;4871529;29;19919;-66
2022/09/09 09:40:30;;;;;;;6.50;2.42;;;19.10;99.90;;;;;;4870155;29;20057;-66
2022/09/09 09:43:00;;;;;;;8.20;2.65;;;19.10;99.90;;;;;;4873875;29;20139;-66
2022/09/09 09:45:47;;;;;;;6.93;2.63;;;19.30;99.90;;;;;;4871744;29;20128;-66
2022/09/09 09:48:13;;;;;;;8.35;2.63;;;19.40;99.90;;;;;;4841914;29;20051;-67
2022/09/09 09:50:50;;;;;;;6.82;2.30;;;19.40;99.90;;;;;;4872523;29;20053;-67
2022/09/09 09:53:28;;;;;;;8.02;2.58;;;19.30;99.90;;;;;;4874976;29;20167;-66
2022/09/09 09:55:57;;;;;;;4.38;2.40;;;19.20;99.90;;;;;;4854084;29;20448;-67
2022/09/09 09:58:24;;;;;;;5.53;2.20;;;19.10;99.90;;;;;;4836837;29;20435;-66
2022/09/09 10:00:53;;;;;;;7.05;2.38;;;19.10;99.90;;;;;;4860084;29;20049;-69
2022/09/09 10:03:40;;;;;;;7.45;2.25;;;19.20;99.90;;;;;;4867694;29;20093;-68
2022/09/09 10:06:06;;;;;;;5.75;2.25;;;19.30;99.90;;;;;;4862961;29;20097;-68
2022/09/09 10:08:45;;;;;;;7.35;2.28;;;19.40;99.90;;;;;;4875490;29;20045;-68
2022/09/09 10:11:25;;;;;;;7.82;2.28;;;19.50;99.90;;;;;;4858907;29;20135;-68
2022/09/09 10:14:24;;;;;;;6.60;2.15;;;19.50;99.90;;;;;;4871570;29;20049;-68
2022/09/09 10:17:13;;;;;;;7.75;2.33;;;19.40;99.90;;;;;;4877835;29;20057;-68
2022/09/09 10:19:50;;;;;;;6.20;2.20;;;19.40;99.90;;;;;;4874543;29;20064;-69
2022/09/09 10:22:27;;;;;;;6.47;2.30;;;19.40;99.90;;;;;;4869771;29;20235;-68
2022/09/09 10:25:18;;;;;;;3.88;1.95;;;19.40;99.90;;;;;;4856937;29;20052;-68
2022/09/09 10:27:56;;;;;;;6.63;2.08;;;19.40;99.90;;;;;;4875190;29;20406;-68
2022/09/09 10:30:50;;;;;;;5.32;1.90;;;19.40;99.90;;;;;;4867103;29;20080;-68
2022/09/09 10:33:48;;;;;;;4.65;2.25;;;19.60;99.90;;;;;;4852408;29;20116;-68
2022/09/09 10:36:21;;;;;;;8.00;2.17;;;19.80;99.90;;;;;;4875017;29;20049;-68
2022/09/09 10:38:53;;;;;;;5.80;1.83;;;20.00;99.90;;;;;;4875087;29;20053;-68
2022/09/09 10:41:34;;;;;;;5.22;2.05;;;20.20;99.90;;;;;;4878467;29;20132;-68
2022/09/09 10:44:38;;;;;;;10.45;2.65;;;20.50;99.90;;;;;;4860804;29;20060;-68
2022/09/09 10:47:30;;;;;;;4.45;1.60;;;20.50;99.90;;;;;;4877611;29;20049;-67
2022/09/09 10:50:05;;;;;;;5.40;1.73;;;20.60;99.90;;;;;;4847662;29;20088;-68
2022/09/09 10:52:54;;;;;;;4.65;2.08;;;20.70;99.90;;;;;;4857741;29;20072;-68
2022/09/09 10:55:25;;;;;;;5.55;2.20;;;20.70;99.90;;;;;;4860987;29;20100;-68
2022/09/09 10:57:53;;;;;;;4.65;1.73;;;20.70;99.90;;;;;;4874331;29;20044;-68
2022/09/09 11:00:24;;;;;;;5.25;1.73;;;20.80;99.90;;;;;;4872478;29;20049;-68
2022/09/09 11:03:04;;;;;;;5.95;1.50;;;20.80;99.90;;;;;;4855935;29;20086;-67
2022/09/09 11:05:46;;;;;;;5.28;1.40;;;20.80;99.90;;;;;;4858985;29;20048;-68
2022/09/09 11:08:19;;;;;;;4.47;1.60;;;20.70;99.90;;;;;;4860228;29;20055;-68
2022/09/09 11:10:55;;;;;;;7.53;2.00;;;20.50;99.90;;;;;;4860315;29;20048;-67
2022/09/09 11:13:51;;;;;;;4.63;1.70;;;20.30;99.90;;;;;;4864148;29;20510;-68
2022/09/09 11:16:31;;;;;;;7.10;1.70;;;20.20;99.90;;;;;;4849656;29;20081;-68
2022/09/09 11:19:18;;;;;;;7.30;1.92;;;20.10;99.90;;;;;;4859729;29;20061;-68
2022/09/09 11:21:47;;;;;;;5.35;1.70;;;20.10;99.90;;;;;;4858484;29;20085;-68
2022/09/09 11:24:21;;;;;;;6.45;1.90;;;20.30;99.90;;;;;;4860658;29;20063;-68
2022/09/09 11:27:20;;;;;;;6.30;1.90;;;20.40;99.90;;;;;;4860622;29;20053;-68
2022/09/09 11:29:55;;;;;;;4.43;1.50;;;20.60;99.90;;;;;;4859145;29;20379;-68
2022/09/09 11:32:29;;;;;;;4.38;1.70;;;20.50;99.90;;;;;;4844167;29;20502;-67
2022/09/09 11:35:37;;;;;;;4.75;1.75;;;20.60;99.90;;;;;;4849645;29;20088;-67
2022/09/09 11:38:21;;;;;;;8.65;1.90;;;20.40;99.90;;;;;;4835592;29;20056;-68
2022/09/09 11:40:53;;;;;;;5.97;1.60;;;20.10;99.90;;;;;;4877836;29;20124;-67
2022/09/09 11:43:29;;;;;;;7.13;1.98;;;20.00;99.90;;;;;;4846609;29;20057;-67
2022/09/09 11:45:58;;;;;;;3.35;1.50;;;19.90;99.90;;;;;;4833270;29;20435;-66
2022/09/09 11:48:45;;;;;;;3.53;1.52;;;19.80;99.90;;;;;;4878881;29;20041;-67
2022/09/09 11:51:13;;;;;;;4.95;1.83;;;19.70;99.90;;;;;;4873298;29;20049;-67
2022/09/09 11:54:13;;;;;;;5.45;1.80;;;19.80;99.90;;;;;;4875630;29;20049;-67
2022/09/09 11:56:45;;;;;;;9.10;2.13;;;19.80;99.90;;;;;;4871083;29;20435;-67
2022/09/09 11:59:29;;;;;;;3.97;1.80;;;19.90;99.90;;;;;;4861574;29;20057;-67
2022/09/09 12:01:58;;;;;;;4.68;2.03;;;20.10;99.90;;;;;;4878933;29;20427;-67
2022/09/09 12:04:24;;;;;;;5.40;1.85;;;20.20;99.90;;;;;;4878072;29;20053;-67
2022/09/09 12:06:54;;;;;;;8.02;2.00;;;20.30;99.90;;;;;;4876051;29;20076;-67
2022/09/09 12:09:27;;;;;;;6.63;1.70;;;20.40;99.90;;;;;;4843569;29;20116;-67
2022/09/09 12:12:04;;;;;;;3.63;1.70;;;20.60;99.90;;;;;;4845493;29;20152;-67
2022/09/09 12:14:38;;;;;;;6.55;1.83;;;20.70;99.90;;;;;;4878674;29;20085;-67
2022/09/09 12:17:16;;;;;;;5.53;1.90;;;21.00;99.90;;;;;;4878080;29;20057;-67
2022/09/09 12:19:42;;;;;;;4.57;1.80;;;21.10;99.90;;;;;;4861405;29;20060;-67
2022/09/09 12:22:22;;;;;;;6.70;1.80;;;21.00;99.90;;;;;;4852165;29;20498;-67
2022/09/09 12:24:58;;;;;;;4.15;1.38;;;20.80;99.90;;;;;;4855316;29;20431;-67
2022/09/09 12:27:40;;;;;;;5.82;2.17;;;20.70;99.90;;;;;;4860108;29;20053;-67
2022/09/09 12:30:29;;;;;;;4.28;1.50;;;20.60;99.90;;;;;;4858836;29;20048;-67
2022/09/09 12:33:11;;;;;;;6.47;1.50;;;20.70;99.90;;;;;;4862952;29;20534;-67
2022/09/09 12:38:41;;;;;;;4.28;1.45;;;20.80;99.90;;;;;;4860680;29;20168;-67
2022/09/09 12:41:48;;;;;;;3.95;1.55;;;20.80;99.90;;;;;;4846022;29;20045;-66
2022/09/09 12:44:14;;;;;;;5.28;1.70;;;20.80;99.90;;;;;;4877363;29;20053;-67
2022/09/09 12:46:48;;;;;;;5.32;1.58;;;20.90;99.90;;;;;;4853528;29;20469;-68
2022/09/09 12:49:38;;;;;;;6.93;1.58;;;20.90;99.90;;;;;;4858520;29;20068;-66
2022/09/09 12:52:14;;;;;;;4.13;1.63;;;20.80;99.90;;;;;;4858902;29;20097;-68
2022/09/09 12:55:21;;;;;;;3.50;1.42;;;20.70;99.90;;;;;;4853102;29;20434;-68
2022/09/09 12:58:05;;;;;;;6.95;1.67;;;20.50;99.90;;;;;;4848794;29;20049;-70
2022/09/09 13:00:36;;;;;;;4.00;1.52;;;20.30;99.90;;;;;;4876928;29;20148;-70
2022/09/09 13:16:08;;;;;;;;;;;;;;;;;;;;;
2022/09/09 13:18:46;;;;;;;5.20;2.40;;;19.90;99.90;;;;;;4864115;29;20360;-69
2022/09/09 14:00:44;;;;;;;4.40;1.58;;;19.50;99.90;;;;;;4895567;29;20039;-69
2022/09/09 14:07:42;;;;;;;4.18;1.45;;;19.90;99.90;;;;;;4896658;29;20039;-70
2022/09/09 14:23:44;;;;;;;1.50;0.70;;;19.80;99.90;;;;;;4890271;29;20079;-69
2022/09/09 14:26:36;;;;;;;2.25;0.60;;;19.90;99.90;;;;;;4874950;29;20056;-69
2022/09/09 14:29:28;;;;;;;1.50;0.70;;;20.20;99.90;;;;;;4885720;29;20143;-69
2022/09/09 14:32:45;;;;;;;2.50;0.90;;;20.40;99.90;;;;;;4874290;29;20053;-69
2022/09/09 14:35:12;;;;;;;2.05;0.93;;;20.40;99.90;;;;;;4879900;29;20053;-68
2022/09/09 14:37:39;;;;;;;2.40;0.85;;;20.40;99.90;;;;;;4855132;29;20056;-68
2022/09/09 14:40:07;;;;;;;1.48;1.10;;;20.50;99.90;;;;;;4875045;29;20037;-67
2022/09/09 14:42:33;;;;;;;2.08;0.73;;;20.50;99.90;;;;;;4881716;29;20119;-67